Time;durP1;ratioP1;P1;durP2;ratioP2;P2;SDS_P1;SDS_P2;PMS_P1;PMS_P2;Temp;Humidity;BMP_temperature;BMP_pressure;BME280_temperature;BME280_humidity;BME280_pressure;Samples;Min_cycle;Max_cycle;Signal;HPM_P1;HPM_P2
2022/05/05 00:00:56;;;;;;;9.52;8.45;;;;;;;;;;5081213;28;20020;-67
2022/05/05 00:03:21;;;;;;;10.77;8.20;;;;;;;;;;5083183;28;20784;-66
2022/05/05 00:05:47;;;;;;;12.30;9.55;;;;;;;;;;5081140;28;20034;-71
2022/05/05 00:08:12;;;;;;;12.73;8.40;;;;;;;;;;5082932;28;20027;-67
2022/05/05 00:16:08;;;;;;;12.18;9.52;;;;;;;;;;5083017;28;20078;-66
2022/05/05 00:18:34;;;;;;;13.38;9.95;;;;;;;;;;5082487;28;20587;-70
2022/05/05 00:20:59;;;;;;;16.52;12.60;;;;;;;;;;5082341;28;20085;-67
2022/05/05 00:23:24;;;;;;;19.50;13.35;;;;;;;;;;5081330;28;20063;-67
2022/05/05 00:25:50;;;;;;;12.30;10.02;;;;;;;;;;5055591;28;21045;-69
2022/05/05 00:28:15;;;;;;;15.13;11.30;;;;;;;;;;5077897;28;20423;-66
2022/05/05 00:30:43;;;;;;;15.50;11.88;;;;;;;;;;5071113;28;20338;-68
2022/05/05 00:33:08;;;;;;;31.55;17.52;;;;;;;;;;5079268;28;20395;-67
2022/05/05 00:35:33;;;;;;;20.13;12.68;;;;;;;;;;5081788;28;20081;-73
2022/05/05 00:37:59;;;;;;;13.23;8.90;;;;;;;;;;5082324;28;20028;-71
2022/05/05 00:40:24;;;;;;;10.10;7.78;;;;;;;;;;5081648;28;20024;-68
2022/05/05 00:42:49;;;;;;;11.50;9.40;;;;;;;;;;5075765;28;20051;-66
2022/05/05 00:45:15;;;;;;;12.48;10.13;;;;;;;;;;5068525;28;20335;-67
2022/05/05 00:47:40;;;;;;;12.55;9.95;;;;;;;;;;5082007;28;20028;-66
2022/05/05 00:50:06;;;;;;;15.18;10.68;;;;;;;;;;5063937;28;20043;-73
2022/05/05 00:52:31;;;;;;;19.02;12.45;;;;;;;;;;5081696;28;20034;-66
2022/05/05 00:54:57;;;;;;;17.90;12.80;;;;;;;;;;5082177;28;20042;-74
2022/05/05 00:57:23;;;;;;;21.88;13.60;;;;;;;;;;5082404;28;20038;-65
2022/05/05 00:59:49;;;;;;;13.35;10.20;;;;;;;;;;5075961;28;20035;-67
2022/05/05 01:02:16;;;;;;;12.38;8.77;;;;;;;;;;5075534;28;20028;-72
2022/05/05 01:04:42;;;;;;;10.35;8.80;;;;;;;;;;5081501;28;20033;-65
2022/05/05 01:07:08;;;;;;;12.27;10.02;;;;;;;;;;5081087;28;20047;-72
2022/05/05 01:09:35;;;;;;;17.25;13.35;;;;;;;;;;5081165;28;20030;-68
2022/05/05 01:12:02;;;;;;;18.27;13.00;;;;;;;;;;5081390;28;20551;-65
2022/05/05 01:14:28;;;;;;;16.63;12.27;;;;;;;;;;5081245;28;20020;-73
2022/05/05 01:16:54;;;;;;;20.17;14.77;;;;;;;;;;5076726;28;20024;-73
2022/05/05 01:19:19;;;;;;;16.65;12.68;;;;;;;;;;5074802;28;20028;-71
2022/05/05 01:21:54;;;;;;;12.85;10.38;;;;;;;;;;5069415;28;20089;-65
2022/05/05 01:28:10;;;;;;;18.60;12.85;;;;;;;;;;5081421;28;20034;-65
2022/05/05 01:29:50;;;;;;;8.25;7.43;;;;;;;;;;5075626;28;20112;-68
2022/05/05 01:32:16;;;;;;;7.28;6.57;;;;;;;;;;5070902;28;20047;-75
2022/05/05 01:34:41;;;;;;;9.10;7.32;;;;;;;;;;5053952;28;20117;-70
2022/05/05 01:37:06;;;;;;;12.38;9.48;;;;;;;;;;5081790;28;20149;-66
2022/05/05 01:39:31;;;;;;;11.27;9.32;;;;;;;;;;5080620;28;20028;-66
2022/05/05 01:41:57;;;;;;;12.65;9.75;;;;;;;;;;5080444;28;20435;-64
2022/05/05 01:44:22;;;;;;;11.90;9.20;;;;;;;;;;5070307;28;20398;-65
2022/05/05 01:46:48;;;;;;;12.90;7.88;;;;;;;;;;5061932;28;20019;-68
2022/05/05 01:49:13;;;;;;;11.60;8.45;;;;;;;;;;5066209;28;20441;-65
2022/05/05 01:51:39;;;;;;;12.68;7.78;;;;;;;;;;5076876;28;20088;-67
2022/05/05 01:54:04;;;;;;;13.75;7.30;;;;;;;;;;5081211;28;20032;-68
2022/05/05 01:56:29;;;;;;;7.53;6.38;;;;;;;;;;5074646;28;20427;-65
2022/05/05 01:58:54;;;;;;;8.60;7.30;;;;;;;;;;5078225;28;20054;-72
2022/05/05 02:01:20;;;;;;;10.02;7.13;;;;;;;;;;5081389;28;20028;-68
2022/05/05 02:03:45;;;;;;;9.63;8.35;;;;;;;;;;5069706;28;20351;-68
2022/05/05 02:06:10;;;;;;;11.82;9.95;;;;;;;;;;5079477;28;20459;-68
2022/05/05 02:08:37;;;;;;;9.07;8.18;;;;;;;;;;5080736;28;20095;-69
2022/05/05 02:11:02;;;;;;;9.07;7.80;;;;;;;;;;5079927;28;20092;-74
2022/05/05 02:13:27;;;;;;;7.55;6.20;;;;;;;;;;5080219;28;20118;-66
2022/05/05 02:15:53;;;;;;;8.27;6.95;;;;;;;;;;5079135;28;20031;-72
2022/05/05 02:18:18;;;;;;;9.70;6.90;;;;;;;;;;5068614;28;20031;-68
2022/05/05 02:20:43;;;;;;;7.25;5.93;;;;;;;;;;5067527;28;20039;-72
2022/05/05 02:23:09;;;;;;;8.43;5.60;;;;;;;;;;5080469;28;20438;-68
2022/05/05 02:25:35;;;;;;;7.00;6.30;;;;;;;;;;5069513;28;20613;-67
2022/05/05 02:28:00;;;;;;;8.00;7.20;;;;;;;;;;5080741;28;20523;-67
2022/05/05 02:30:27;;;;;;;8.38;7.57;;;;;;;;;;5080259;28;20028;-65
2022/05/05 02:32:52;;;;;;;8.13;7.25;;;;;;;;;;5080206;28;20640;-66
2022/05/05 02:35:18;;;;;;;8.25;6.95;;;;;;;;;;5080097;28;20024;-66
2022/05/05 02:40:27;;;;;;;8.52;6.70;;;;;;;;;;5074393;28;20039;-68
2022/05/05 02:42:56;;;;;;;8.70;7.32;;;;;;;;;;5080667;28;20375;-65
2022/05/05 02:45:22;;;;;;;8.05;6.72;;;;;;;;;;5080439;28;20498;-67
2022/05/05 02:47:49;;;;;;;7.53;6.72;;;;;;;;;;5080106;28;20077;-74
2022/05/05 02:50:14;;;;;;;10.82;7.97;;;;;;;;;;5080183;28;20024;-71
2022/05/05 02:52:40;;;;;;;9.73;7.47;;;;;;;;;;5069108;28;20035;-65
2022/05/05 02:55:06;;;;;;;10.65;7.93;;;;;;;;;;5070882;28;20494;-66
2022/05/05 02:57:31;;;;;;;10.73;8.15;;;;;;;;;;5068139;28;20024;-72
2022/05/05 02:59:57;;;;;;;11.18;8.73;;;;;;;;;;5068354;28;20092;-70
2022/05/05 03:02:23;;;;;;;10.00;7.72;;;;;;;;;;5079018;28;20036;-66
2022/05/05 03:04:49;;;;;;;9.65;7.43;;;;;;;;;;5080706;28;20020;-69
2022/05/05 03:07:15;;;;;;;8.57;6.85;;;;;;;;;;5080454;28;20048;-67
2022/05/05 03:09:41;;;;;;;7.95;7.15;;;;;;;;;;5079920;28;20028;-74
2022/05/05 03:12:07;;;;;;;12.52;6.70;;;;;;;;;;5068142;28;22964;-66
2022/05/05 03:14:32;;;;;;;9.40;7.82;;;;;;;;;;5080849;28;20036;-66
2022/05/05 03:16:58;;;;;;;6.97;6.22;;;;;;;;;;5079968;28;20032;-66
2022/05/05 03:19:23;;;;;;;7.63;6.80;;;;;;;;;;5079219;28;20039;-68
2022/05/05 03:21:48;;;;;;;8.93;7.40;;;;;;;;;;5069094;28;20032;-66
2022/05/05 03:24:14;;;;;;;7.72;6.07;;;;;;;;;;5080006;28;20020;-73
2022/05/05 03:26:39;;;;;;;10.10;7.38;;;;;;;;;;5082909;28;20044;-65
2022/05/05 03:29:04;;;;;;;7.90;6.90;;;;;;;;;;5080812;28;20420;-68
2022/05/05 03:31:30;;;;;;;7.90;6.90;;;;;;;;;;5069428;28;20035;-69
2022/05/05 03:33:55;;;;;;;7.53;6.50;;;;;;;;;;5073417;28;20488;-72
2022/05/05 03:36:21;;;;;;;17.92;11.85;;;;;;;;;;5083184;28;20755;-66
2022/05/05 03:38:47;;;;;;;17.15;11.05;;;;;;;;;;5082046;28;20024;-73
2022/05/05 03:41:12;;;;;;;17.10;11.63;;;;;;;;;;5083711;28;20028;-66
2022/05/05 03:43:37;;;;;;;14.68;10.60;;;;;;;;;;5083749;28;20451;-67
2022/05/05 03:46:03;;;;;;;11.05;7.75;;;;;;;;;;5083018;28;20092;-67
2022/05/05 03:48:30;;;;;;;9.00;7.85;;;;;;;;;;5081727;28;20422;-66
2022/05/05 03:50:56;;;;;;;9.07;7.22;;;;;;;;;;5083390;28;20024;-68
2022/05/05 03:53:21;;;;;;;8.80;7.47;;;;;;;;;;5083691;28;20178;-64
2022/05/05 03:55:46;;;;;;;8.32;7.15;;;;;;;;;;5082864;28;20028;-67
2022/05/05 03:58:12;;;;;;;7.55;6.82;;;;;;;;;;5083691;28;20027;-70
2022/05/05 04:00:37;;;;;;;11.27;8.10;;;;;;;;;;5081807;28;20051;-65
2022/05/05 04:05:46;;;;;;;10.00;7.47;;;;;;;;;;5075223;28;20047;-66
2022/05/05 04:08:11;;;;;;;8.02;6.38;;;;;;;;;;5081743;28;20017;-72
2022/05/05 04:10:37;;;;;;;9.52;6.95;;;;;;;;;;5082192;28;20032;-67
2022/05/05 04:13:02;;;;;;;8.70;7.80;;;;;;;;;;5083258;28;20757;-65
2022/05/05 04:15:27;;;;;;;8.68;7.05;;;;;;;;;;5082319;28;20093;-71
2022/05/05 04:17:53;;;;;;;9.98;8.30;;;;;;;;;;5068058;28;20024;-69
2022/05/05 04:20:18;;;;;;;13.88;10.63;;;;;;;;;;5070254;28;20141;-65
2022/05/05 04:22:44;;;;;;;14.63;10.65;;;;;;;;;;5068744;28;20046;-65
2022/05/05 04:25:12;;;;;;;15.30;9.98;;;;;;;;;;5069551;28;20101;-64
2022/05/05 04:27:37;;;;;;;11.93;9.45;;;;;;;;;;5080407;28;20027;-70
2022/05/05 04:30:03;;;;;;;16.25;12.57;;;;;;;;;;5081270;28;20355;-68
2022/05/05 04:32:28;;;;;;;13.77;11.02;;;;;;;;;;5082681;28;20055;-68
2022/05/05 04:34:54;;;;;;;10.57;9.48;;;;;;;;;;5081745;28;20044;-66
2022/05/05 04:37:20;;;;;;;13.13;10.02;;;;;;;;;;5081444;28;20055;-68
2022/05/05 04:39:45;;;;;;;10.02;8.15;;;;;;;;;;5080927;28;20028;-64
2022/05/05 04:42:10;;;;;;;9.27;7.25;;;;;;;;;;5077435;28;20431;-66
2022/05/05 04:44:36;;;;;;;7.80;7.00;;;;;;;;;;5069087;28;20125;-67
2022/05/05 04:47:01;;;;;;;11.48;7.75;;;;;;;;;;5069469;28;20035;-71
2022/05/05 04:49:27;;;;;;;26.08;16.15;;;;;;;;;;5069148;28;20898;-68
2022/05/05 04:51:52;;;;;;;16.40;12.20;;;;;;;;;;5069034;28;20032;-66
2022/05/05 04:54:17;;;;;;;18.05;12.93;;;;;;;;;;5051538;28;20039;-65
2022/05/05 04:56:43;;;;;;;13.20;10.85;;;;;;;;;;5068751;28;20032;-65
2022/05/05 04:59:08;;;;;;;10.90;9.20;;;;;;;;;;5076599;28;20024;-63
2022/05/05 05:01:33;;;;;;;11.07;9.45;;;;;;;;;;5081224;28;20020;-66
2022/05/05 05:03:59;;;;;;;13.73;10.55;;;;;;;;;;5078813;28;20028;-67
2022/05/05 05:06:24;;;;;;;18.00;13.80;;;;;;;;;;5068781;28;20399;-64
2022/05/05 05:08:49;;;;;;;13.38;10.57;;;;;;;;;;5077464;28;20060;-68
2022/05/05 05:11:15;;;;;;;9.68;8.32;;;;;;;;;;5078178;28;20020;-67
2022/05/05 05:13:40;;;;;;;8.70;7.63;;;;;;;;;;5066908;28;20352;-66
2022/05/05 05:16:06;;;;;;;9.80;8.10;;;;;;;;;;5067172;28;20092;-72
2022/05/05 05:18:31;;;;;;;10.05;8.68;;;;;;;;;;5064037;28;20024;-72
2022/05/05 05:20:57;;;;;;;10.68;9.60;;;;;;;;;;5067011;28;20351;-75
2022/05/05 05:23:22;;;;;;;15.68;10.88;;;;;;;;;;5066569;28;20161;-67
2022/05/05 05:25:48;;;;;;;16.10;10.98;;;;;;;;;;5064747;28;20053;-65
2022/05/05 05:28:13;;;;;;;11.63;9.95;;;;;;;;;;5069364;28;20173;-67
2022/05/05 05:30:38;;;;;;;9.05;8.15;;;;;;;;;;5080810;28;20081;-65
2022/05/05 05:33:04;;;;;;;10.20;9.23;;;;;;;;;;5079413;28;20020;-66
2022/05/05 05:35:29;;;;;;;8.85;8.05;;;;;;;;;;5078472;28;20020;-75
2022/05/05 05:37:55;;;;;;;8.25;6.45;;;;;;;;;;5067820;28;20131;-69
2022/05/05 05:40:20;;;;;;;9.00;7.68;;;;;;;;;;5075568;28;20103;-67
2022/05/05 05:42:45;;;;;;;12.45;10.05;;;;;;;;;;5081016;28;20058;-75
2022/05/05 05:45:10;;;;;;;9.50;7.78;;;;;;;;;;5074371;28;20115;-69
2022/05/05 05:47:36;;;;;;;9.18;7.63;;;;;;;;;;5050144;28;20028;-66
2022/05/05 05:50:01;;;;;;;10.95;7.97;;;;;;;;;;5068086;28;23056;-66
2022/05/05 05:52:26;;;;;;;5.97;5.32;;;;;;;;;;5067471;28;20031;-67
2022/05/05 05:54:52;;;;;;;7.70;5.70;;;;;;;;;;5046535;28;20028;-66
2022/05/05 05:57:17;;;;;;;7.50;5.00;;;;;;;;;;5065599;28;20115;-66
2022/05/05 05:59:42;;;;;;;9.38;6.28;;;;;;;;;;5074241;28;20020;-66
2022/05/05 06:04:52;;;;;;;7.85;5.25;;;;;;;;;;5080880;28;20054;-74
2022/05/05 06:07:17;;;;;;;4.65;4.22;;;;;;;;;;5080516;28;20077;-68
2022/05/05 06:09:42;;;;;;;5.32;4.38;;;;;;;;;;5079809;28;20152;-67
2022/05/05 06:12:08;;;;;;;7.78;3.47;;;;;;;;;;5081537;28;20037;-66
2022/05/05 06:14:34;;;;;;;4.15;3.67;;;;;;;;;;5072270;28;20016;-68
2022/05/05 06:16:59;;;;;;;3.85;3.55;;;;;;;;;;5070914;28;20023;-71
2022/05/05 06:19:24;;;;;;;5.38;3.80;;;;;;;;;;5065917;28;20420;-67
2022/05/05 06:21:50;;;;;;;4.47;3.90;;;;;;;;;;5066772;28;20039;-66
2022/05/05 06:24:15;;;;;;;5.85;4.05;;;;;;;;;;5066754;28;20048;-66
2022/05/05 06:26:40;;;;;;;7.95;5.60;;;;;;;;;;5065639;28;20020;-73
2022/05/05 06:29:06;;;;;;;15.32;7.20;;;;;;;;;;5067632;28;20081;-69
2022/05/05 06:31:31;;;;;;;13.02;7.43;;;;;;;;;;5064485;28;20417;-66
2022/05/05 06:33:56;;;;;;;10.02;7.47;;;;;;;;;;5069839;28;20371;-75
2022/05/05 06:36:23;;;;;;;7.82;7.03;;;;;;;;;;5070913;28;21004;-69
2022/05/05 06:38:51;;;;;;;14.00;9.27;;;;;;;;;;5080788;28;20012;-65
2022/05/05 06:41:16;;;;;;;10.35;7.22;;;;;;;;;;5080306;28;20024;-68
2022/05/05 06:43:41;;;;;;;8.20;5.55;;;;;;;;;;5079893;28;20040;-66
2022/05/05 06:46:07;;;;;;;8.48;6.45;;;;;;;;;;5079836;28;20727;-69
2022/05/05 06:48:32;;;;;;;6.93;5.90;;;;;;;;;;5080429;28;20105;-66
2022/05/05 06:50:58;;;;;;;6.15;5.50;;;;;;;;;;5079284;28;20027;-68
2022/05/05 06:53:23;;;;;;;6.95;5.28;;;;;;;;;;5079465;28;20118;-67
2022/05/05 06:55:49;;;;;;;6.68;5.25;;;;;;;;;;5080595;28;20036;-64
2022/05/05 06:58:15;;;;;;;8.00;5.30;;;;;;;;;;5079404;28;20018;-69
2022/05/05 07:03:24;;;;;;;5.70;4.97;;;;;;;;;;5068554;28;20063;-74
2022/05/05 07:05:49;;;;;;;5.72;4.93;;;;;;;;;;5076890;28;20116;-68
2022/05/05 07:08:14;;;;;;;9.60;4.55;;;;;;;;;;5084861;28;20099;-69
2022/05/05 07:10:52;;;;;;;8.00;5.00;;;;;;;;;;5083777;28;20028;-66
2022/05/05 07:13:17;;;;;;;5.95;4.63;;;;;;;;;;5084835;28;20053;-70
2022/05/05 07:15:43;;;;;;;5.57;4.57;;;;;;;;;;5084177;28;20451;-65
2022/05/05 07:18:08;;;;;;;5.80;4.20;;;;;;;;;;5084906;28;20027;-74
2022/05/05 07:20:34;;;;;;;5.93;4.10;;;;;;;;;;5085187;28;20085;-68
2022/05/05 07:22:59;;;;;;;6.50;4.50;;;;;;;;;;5084507;28;20036;-68
2022/05/05 07:25:25;;;;;;;6.65;4.80;;;;;;;;;;5072001;28;20028;-75
2022/05/05 07:27:51;;;;;;;5.47;3.85;;;;;;;;;;5073207;28;20020;-70
2022/05/05 07:30:16;;;;;;;4.38;3.97;;;;;;;;;;5083106;28;20464;-65
2022/05/05 07:32:42;;;;;;;5.32;3.70;;;;;;;;;;5072685;28;20508;-66
2022/05/05 07:35:07;;;;;;;6.72;4.43;;;;;;;;;;5084564;28;20332;-64
2022/05/05 07:37:32;;;;;;;4.30;3.90;;;;;;;;;;5083390;28;20454;-66
2022/05/05 07:39:58;;;;;;;5.75;3.70;;;;;;;;;;5083989;28;20020;-65
2022/05/05 07:42:23;;;;;;;3.83;3.50;;;;;;;;;;5084072;28;20123;-66
2022/05/05 07:44:48;;;;;;;5.22;3.33;;;;;;;;;;5082572;28;20024;-72
2022/05/05 07:47:14;;;;;;;3.78;3.47;;;;;;;;;;5081314;28;20127;-69
2022/05/05 07:49:39;;;;;;;3.28;2.97;;;;;;;;;;5069354;28;20443;-66
2022/05/05 07:52:05;;;;;;;7.07;2.65;;;;;;;;;;5081898;28;20024;-71
2022/05/05 07:54:39;;;;;;;3.03;2.72;;;;;;;;;;5084020;28;20032;-65
2022/05/05 07:57:08;;;;;;;5.38;4.32;;;;;;;;;;5083417;28;20031;-66
2022/05/05 07:59:34;;;;;;;22.63;12.15;;;;;;;;;;5083313;28;20473;-65
2022/05/05 08:01:59;;;;;;;7.90;4.15;;;;;;;;;;5083995;28;20533;-65
2022/05/05 08:04:25;;;;;;;3.92;2.95;;;;;;;;;;5083575;28;20020;-68
2022/05/05 08:06:50;;;;;;;2.92;2.40;;;;;;;;;;5082524;28;20043;-66
2022/05/05 08:09:16;;;;;;;32.13;18.77;;;;;;;;;;5083185;28;20020;-70
2022/05/05 08:11:42;;;;;;;87.80;42.70;;;;;;;;;;5083124;28;20020;-65
2022/05/05 08:14:08;;;;;;;134.35;65.50;;;;;;;;;;5083748;28;20441;-67
2022/05/05 08:16:33;;;;;;;126.15;65.35;;;;;;;;;;5083099;28;20023;-66
2022/05/05 08:18:59;;;;;;;154.25;88.35;;;;;;;;;;5083511;28;20123;-72
2022/05/05 08:21:24;;;;;;;44.40;28.42;;;;;;;;;;5081607;28;20107;-65
2022/05/05 08:28:27;;;;;;;10.57;6.43;;;;;;;;;;5083227;28;20027;-72
2022/05/05 08:29:18;;;;;;;14.57;11.13;;;;;;;;;;5082901;28;20088;-68
2022/05/05 08:31:44;;;;;;;98.18;68.72;;;;;;;;;;5081827;28;20032;-67
2022/05/05 08:34:09;;;;;;;11.18;7.78;;;;;;;;;;5082631;28;20028;-67
2022/05/05 08:36:34;;;;;;;15.73;9.93;;;;;;;;;;5083377;28;20028;-72
2022/05/05 08:39:00;;;;;;;22.17;17.80;;;;;;;;;;5082465;28;20024;-70
2022/05/05 08:41:25;;;;;;;43.33;31.33;;;;;;;;;;5082260;28;20447;-68
2022/05/05 08:43:50;;;;;;;8.60;6.78;;;;;;;;;;5081447;28;20032;-66
2022/05/05 08:46:19;;;;;;;32.83;25.83;;;;;;;;;;5081827;28;20802;-68
2022/05/05 08:48:45;;;;;;;32.28;25.42;;;;;;;;;;5081386;28;20024;-69
2022/05/05 08:51:12;;;;;;;5.40;4.90;;;;;;;;;;5082094;28;20096;-66
2022/05/05 08:53:38;;;;;;;15.40;13.77;;;;;;;;;;5069956;28;20504;-66
2022/05/05 08:56:04;;;;;;;22.75;18.52;;;;;;;;;;5082607;28;20020;-67
2022/05/05 08:58:30;;;;;;;7.22;6.30;;;;;;;;;;5081858;28;20035;-69
2022/05/05 09:00:55;;;;;;;15.32;12.18;;;;;;;;;;5082244;28;20312;-67
2022/05/05 09:03:21;;;;;;;9.48;8.10;;;;;;;;;;5080457;28;20024;-70
2022/05/05 09:05:47;;;;;;;8.75;4.85;;;;;;;;;;5080534;28;20043;-66
2022/05/05 09:08:14;;;;;;;14.88;12.07;;;;;;;;;;5082154;28;20020;-67
2022/05/05 09:10:42;;;;;;;8.75;7.10;;;;;;;;;;5082023;28;20024;-68
2022/05/05 09:13:08;;;;;;;9.98;8.88;;;;;;;;;;5081170;28;20019;-67
2022/05/05 09:15:34;;;;;;;7.05;6.35;;;;;;;;;;5081871;28;20059;-67
2022/05/05 09:18:20;;;;;;;4.93;4.55;;;;;;;;;;5070024;28;20431;-64
2022/05/05 09:20:45;;;;;;;6.63;3.92;;;;;;;;;;5063617;28;20385;-68
2022/05/05 09:23:29;;;;;;;3.67;2.60;;;;;;;;;;5074731;28;20036;-70
2022/05/05 09:25:55;;;;;;;3.95;2.90;;;;;;;;;;5049757;28;20412;-66
2022/05/05 09:28:21;;;;;;;4.03;3.40;;;;;;;;;;5068184;28;20031;-68
2022/05/05 09:30:48;;;;;;;3.45;2.30;;;;;;;;;;5066523;28;20427;-71
2022/05/05 09:33:45;;;;;;;4.38;2.30;;;;;;;;;;5065909;28;20097;-67
2022/05/05 09:36:12;;;;;;;5.38;2.45;;;;;;;;;;5053706;28;20367;-67
2022/05/05 09:38:52;;;;;;;3.22;2.38;;;;;;;;;;5081790;28;20028;-67
2022/05/05 09:41:22;;;;;;;2.92;2.72;;;;;;;;;;5081744;28;20035;-70
2022/05/05 09:43:47;;;;;;;3.38;2.40;;;;;;;;;;5082478;28;20459;-68
2022/05/05 09:46:39;;;;;;;2.35;1.90;;;;;;;;;;5081719;28;20039;-68
2022/05/05 09:49:07;;;;;;;3.55;2.25;;;;;;;;;;5081316;28;20459;-68
2022/05/05 09:51:40;;;;;;;3.23;2.10;;;;;;;;;;5083179;28;20032;-66
2022/05/05 09:59:40;;;;;;;3.83;2.63;;;;;;;;;;5082335;28;20510;-67
2022/05/05 10:02:07;;;;;;;2.38;1.90;;;;;;;;;;5081643;28;20431;-67
2022/05/05 10:04:33;;;;;;;2.10;1.90;;;;;;;;;;5082820;28;20020;-68
2022/05/05 10:07:01;;;;;;;4.05;2.05;;;;;;;;;;5081418;28;20179;-68
2022/05/05 10:09:27;;;;;;;2.28;2.13;;;;;;;;;;5082398;28;20233;-68
2022/05/05 10:11:53;;;;;;;3.85;2.25;;;;;;;;;;5082507;28;20034;-66
2022/05/05 10:14:20;;;;;;;2.55;2.28;;;;;;;;;;5081253;28;20012;-66
2022/05/05 10:16:46;;;;;;;3.83;2.20;;;;;;;;;;5082563;28;20399;-70
2022/05/05 10:19:11;;;;;;;2.75;2.55;;;;;;;;;;5082577;28;20149;-67
2022/05/05 10:21:44;;;;;;;3.13;2.55;;;;;;;;;;5081541;28;20119;-67
2022/05/05 10:24:13;;;;;;;2.25;2.05;;;;;;;;;;5081826;28;20026;-66
2022/05/05 10:26:39;;;;;;;3.97;2.13;;;;;;;;;;5081175;28;20375;-67
2022/05/05 10:29:04;;;;;;;5.50;2.97;;;;;;;;;;5081786;28;20660;-69
2022/05/05 10:31:37;;;;;;;3.38;2.47;;;;;;;;;;5064092;28;20359;-68
2022/05/05 10:34:06;;;;;;;2.78;2.13;;;;;;;;;;5082692;28;20141;-69
2022/05/05 10:36:32;;;;;;;2.80;2.50;;;;;;;;;;5085091;28;20020;-66
2022/05/05 10:38:57;;;;;;;2.55;2.30;;;;;;;;;;5085635;28;20020;-68
2022/05/05 10:41:40;;;;;;;3.45;2.10;;;;;;;;;;5084845;28;20032;-67
2022/05/05 10:44:26;;;;;;;2.35;2.00;;;;;;;;;;5085354;28;20024;-68
2022/05/05 10:46:57;;;;;;;4.63;3.45;;;;;;;;;;5085255;28;20035;-67
2022/05/05 10:52:09;;;;;;;4.47;2.00;;;;;;;;;;5084811;28;20122;-68
2022/05/05 10:54:39;;;;;;;2.63;2.10;;;;;;;;;;5073678;28;20028;-70
2022/05/05 10:57:22;;;;;;;4.70;2.20;;;;;;;;;;5072850;28;20056;-66
2022/05/05 11:00:07;;;;;;;3.72;2.28;;;;;;;;;;5084599;28;20028;-68
2022/05/05 11:02:32;;;;;;;4.03;1.95;;;;;;;;;;5084971;28;20075;-68
2022/05/05 11:05:18;;;;;;;4.57;2.67;;;;;;;;;;5084514;28;20059;-67
2022/05/05 11:07:43;;;;;;;3.90;2.17;;;;;;;;;;5065986;28;20179;-73
2022/05/05 11:10:29;;;;;;;3.22;1.95;;;;;;;;;;5069873;28;20115;-73
2022/05/05 11:12:54;;;;;;;3.03;1.88;;;;;;;;;;5069075;28;20877;-68
2022/05/05 11:23:45;;;;;;;3.53;1.80;;;;;;;;;;5084091;28;20043;-69
2022/05/05 11:26:14;;;;;;;2.60;2.10;;;;;;;;;;5083526;28;20447;-71
2022/05/05 11:28:39;;;;;;;2.70;2.05;;;;;;;;;;5082459;28;20027;-67
2022/05/05 11:31:14;;;;;;;8.00;2.22;;;;;;;;;;5081791;28;20028;-72
2022/05/05 11:33:40;;;;;;;4.30;2.28;;;;;;;;;;5085087;28;20047;-69
2022/05/05 11:36:06;;;;;;;2.30;2.10;;;;;;;;;;5085258;28;20024;-71
2022/05/05 11:38:32;;;;;;;3.83;2.30;;;;;;;;;;5066675;28;20426;-68
2022/05/05 11:41:04;;;;;;;2.25;2.05;;;;;;;;;;5084281;28;20031;-67
2022/05/05 11:46:14;;;;;;;2.00;1.88;;;;;;;;;;5081513;28;20378;-72
2022/05/05 11:48:41;;;;;;;2.90;2.03;;;;;;;;;;5065621;28;20032;-69
2022/05/05 11:51:06;;;;;;;2.58;2.15;;;;;;;;;;5083829;28;20129;-69
2022/05/05 11:53:31;;;;;;;1.95;1.80;;;;;;;;;;5084282;28;20040;-71
2022/05/05 11:55:57;;;;;;;4.03;1.95;;;;;;;;;;5084153;28;20031;-68
2022/05/05 12:04:00;;;;;;;4.25;2.20;;;;;;;;;;5081682;28;20116;-68
2022/05/05 12:06:27;;;;;;;2.25;2.05;;;;;;;;;;5084175;28;20047;-70
2022/05/05 12:08:52;;;;;;;2.90;2.03;;;;;;;;;;5084347;28;20023;-71
2022/05/05 12:11:18;;;;;;;2.22;1.98;;;;;;;;;;5084507;28;20065;-70
2022/05/05 12:13:43;;;;;;;3.55;1.88;;;;;;;;;;5083616;28;20107;-69
2022/05/05 12:16:10;;;;;;;1.90;1.80;;;;;;;;;;5084092;28;20872;-69
2022/05/05 12:18:48;;;;;;;2.22;1.92;;;;;;;;;;5083961;28;20024;-69
2022/05/05 12:21:23;;;;;;;2.00;1.90;;;;;;;;;;5083681;28;20016;-69
2022/05/05 12:24:15;;;;;;;5.03;1.95;;;;;;;;;;5084227;28;20368;-68
2022/05/05 12:26:40;;;;;;;2.00;1.90;;;;;;;;;;5079967;28;20463;-74
2022/05/05 12:29:12;;;;;;;4.18;2.30;;;;;;;;;;5083734;28;20031;-70
2022/05/05 12:31:37;;;;;;;6.75;2.60;;;;;;;;;;5083643;28;20029;-67
2022/05/05 12:34:03;;;;;;;3.47;2.17;;;;;;;;;;5083263;28;20073;-70
2022/05/05 12:36:28;;;;;;;4.30;2.60;;;;;;;;;;5077863;28;20036;-69
2022/05/05 12:39:10;;;;;;;3.88;2.10;;;;;;;;;;5068872;28;20058;-68
2022/05/05 12:41:35;;;;;;;2.65;2.13;;;;;;;;;;5068356;28;20737;-68
2022/05/05 12:44:12;;;;;;;2.00;1.80;;;;;;;;;;5070089;28;20049;-69
2022/05/05 12:46:51;;;;;;;2.35;1.98;;;;;;;;;;5068473;28;20512;-71
2022/05/05 12:49:35;;;;;;;3.45;1.95;;;;;;;;;;5067813;28;20028;-71
2022/05/05 12:52:01;;;;;;;2.67;2.22;;;;;;;;;;5068078;28;20084;-71
2022/05/05 12:59:57;;;;;;;3.95;2.10;;;;;;;;;;5031455;28;20035;-69
2022/05/05 13:02:22;;;;;;;4.57;2.05;;;;;;;;;;5070631;28;20097;-72
2022/05/05 13:04:48;;;;;;;2.85;2.05;;;;;;;;;;5071450;28;20036;-68
2022/05/05 13:07:14;;;;;;;6.18;2.13;;;;;;;;;;5069089;28;20374;-65
2022/05/05 13:09:39;;;;;;;3.60;2.30;;;;;;;;;;5074005;28;20044;-67
2022/05/05 13:12:05;;;;;;;2.85;2.38;;;;;;;;;;5078997;28;20030;-67
2022/05/05 13:14:30;;;;;;;2.95;2.60;;;;;;;;;;5074567;28;20502;-68
2022/05/05 13:16:57;;;;;;;4.55;2.05;;;;;;;;;;5068707;28;20039;-72
2022/05/05 13:19:24;;;;;;;3.45;2.25;;;;;;;;;;5067469;28;20028;-71
2022/05/05 13:21:49;;;;;;;3.13;2.25;;;;;;;;;;5068326;28;20039;-67
2022/05/05 13:24:15;;;;;;;3.33;2.47;;;;;;;;;;5076453;28;20023;-65
2022/05/05 13:26:41;;;;;;;5.38;2.00;;;;;;;;;;5068597;28;20020;-66
2022/05/05 13:29:06;;;;;;;4.95;2.13;;;;;;;;;;5068582;28;20343;-68
2022/05/05 13:31:32;;;;;;;3.42;1.90;;;;;;;;;;5082698;28;20027;-68
2022/05/05 13:33:58;;;;;;;3.17;2.15;;;;;;;;;;5087327;28;20040;-69
2022/05/05 13:36:23;;;;;;;2.17;1.98;;;;;;;;;;5084740;28;20043;-69
2022/05/05 13:38:48;;;;;;;3.85;1.80;;;;;;;;;;5081098;28;20388;-67
2022/05/05 13:41:14;;;;;;;3.40;2.10;;;;;;;;;;5072300;28;20027;-67
2022/05/05 13:43:40;;;;;;;3.25;2.10;;;;;;;;;;5078921;28;20039;-67
2022/05/05 13:46:06;;;;;;;2.78;2.22;;;;;;;;;;5081266;28;20106;-67
2022/05/05 13:48:31;;;;;;;2.50;2.17;;;;;;;;;;5076191;28;20051;-70
2022/05/05 13:50:58;;;;;;;3.55;2.00;;;;;;;;;;5067058;28;20040;-68
2022/05/05 13:53:23;;;;;;;4.03;2.08;;;;;;;;;;5068409;28;20474;-69
2022/05/05 13:55:48;;;;;;;4.28;2.20;;;;;;;;;;5067839;28;20024;-68
2022/05/05 13:58:14;;;;;;;2.67;1.95;;;;;;;;;;5067895;28;20024;-68
2022/05/05 14:00:39;;;;;;;3.03;2.80;;;;;;;;;;5066658;28;20024;-68
2022/05/05 14:03:04;;;;;;;4.05;2.10;;;;;;;;;;5069602;28;20036;-67
2022/05/05 14:05:31;;;;;;;6.85;2.60;;;;;;;;;;5080249;28;20032;-68
2022/05/05 14:13:25;;;;;;;5.50;3.58;;;;;;;;;;5072054;28;20081;-68
2022/05/05 14:15:50;;;;;;;5.57;3.13;;;;;;;;;;5081732;28;20028;-69
2022/05/05 14:18:16;;;;;;;10.35;3.42;;;;;;;;;;5070277;28;20082;-68
2022/05/05 14:20:42;;;;;;;3.03;2.50;;;;;;;;;;5080528;28;20027;-69
2022/05/05 14:23:08;;;;;;;3.55;2.47;;;;;;;;;;5081693;28;20040;-71
2022/05/05 14:25:33;;;;;;;4.75;2.55;;;;;;;;;;5078108;28;20016;-68
2022/05/05 14:27:59;;;;;;;2.53;2.30;;;;;;;;;;5066148;28;20020;-69
2022/05/05 14:30:24;;;;;;;2.67;2.47;;;;;;;;;;5066774;28;20032;-68
2022/05/05 14:32:50;;;;;;;4.07;3.17;;;;;;;;;;5067397;28;20016;-69
2022/05/05 14:35:15;;;;;;;7.13;3.65;;;;;;;;;;5068982;28;20031;-74
2022/05/05 14:37:40;;;;;;;14.65;4.65;;;;;;;;;;5072125;28;20332;-71
2022/05/05 14:40:06;;;;;;;5.70;3.95;;;;;;;;;;5065532;28;20387;-71
2022/05/05 14:42:31;;;;;;;6.38;3.08;;;;;;;;;;5066255;28;20085;-71
2022/05/05 14:44:57;;;;;;;11.32;4.22;;;;;;;;;;5066463;28;20178;-69
2022/05/05 14:47:22;;;;;;;3.10;2.72;;;;;;;;;;5066902;28;20030;-69
2022/05/05 14:49:48;;;;;;;3.15;2.20;;;;;;;;;;5065664;28;20439;-69
2022/05/05 14:52:17;;;;;;;2.40;1.77;;;;;;;;;;5065608;28;20065;-71
2022/05/05 14:54:43;;;;;;;5.18;2.22;;;;;;;;;;5065724;28;20589;-71
2022/05/05 14:57:09;;;;;;;3.47;2.80;;;;;;;;;;5066125;28;20096;-69
2022/05/05 14:59:35;;;;;;;5.38;4.88;;;;;;;;;;5067038;28;20084;-69
2022/05/05 15:02:00;;;;;;;7.85;4.88;;;;;;;;;;5065897;28;20020;-71
2022/05/05 15:04:26;;;;;;;5.38;4.72;;;;;;;;;;5065557;28;20035;-70
2022/05/05 15:06:51;;;;;;;9.00;5.45;;;;;;;;;;5066597;28;20451;-76
2022/05/05 15:09:18;;;;;;;21.27;17.83;;;;;;;;;;5071893;28;20029;-73
2022/05/05 15:11:43;;;;;;;21.67;19.35;;;;;;;;;;5065869;28;20082;-70
2022/05/05 15:14:09;;;;;;;10.35;9.05;;;;;;;;;;5066545;28;20027;-70
2022/05/05 15:16:34;;;;;;;5.90;5.30;;;;;;;;;;5066090;28;20028;-68
2022/05/05 15:18:59;;;;;;;6.05;4.05;;;;;;;;;;5067586;28;20469;-67
2022/05/05 15:21:25;;;;;;;3.03;2.83;;;;;;;;;;5076560;28;20446;-69
2022/05/05 15:23:52;;;;;;;5.10;2.42;;;;;;;;;;5056902;28;20036;-76
2022/05/05 15:26:18;;;;;;;4.28;2.75;;;;;;;;;;5075532;28;20028;-74
2022/05/05 15:28:43;;;;;;;4.72;2.70;;;;;;;;;;5079935;28;20032;-69
2022/05/05 15:31:09;;;;;;;3.75;2.60;;;;;;;;;;5070765;28;20031;-69